sensor_id;sensor_type;location;lat;lon;timestamp;P1;durP1;ratioP1;P2;durP2;ratioP2
75456;SDS011;64036;48.266;14.192;2023-08-24T00:01:36;7.10;;;5.30;;
75456;SDS011;64036;48.266;14.192;2023-08-24T00:04:02;7.50;;;5.30;;
75456;SDS011;64036;48.266;14.192;2023-08-24T00:06:28;9.00;;;5.60;;
75456;SDS011;64036;48.266;14.192;2023-08-24T00:08:53;9.00;;;6.50;;
75456;SDS011;64036;48.266;14.192;2023-08-24T00:11:19;7.80;;;5.40;;
75456;SDS011;64036;48.266;14.192;2023-08-24T00:13:45;8.70;;;5.50;;
75456;SDS011;64036;48.266;14.192;2023-08-24T00:16:18;8.80;;;5.70;;
75456;SDS011;64036;48.266;14.192;2023-08-24T00:18:45;8.20;;;5.80;;
75456;SDS011;64036;48.266;14.192;2023-08-24T00:21:15;9.00;;;5.80;;
75456;SDS011;64036;48.266;14.192;2023-08-24T00:23:48;9.30;;;6.70;;
75456;SDS011;64036;48.266;14.192;2023-08-24T00:26:14;10.40;;;6.40;;
75456;SDS011;64036;48.266;14.192;2023-08-24T00:28:42;8.90;;;6.60;;
75456;SDS011;64036;48.266;14.192;2023-08-24T00:31:08;11.30;;;7.20;;
75456;SDS011;64036;48.266;14.192;2023-08-24T00:33:34;8.80;;;7.00;;
75456;SDS011;64036;48.266;14.192;2023-08-24T00:36:04;10.30;;;6.40;;
75456;SDS011;64036;48.266;14.192;2023-08-24T00:38:30;7.90;;;6.20;;
75456;SDS011;64036;48.266;14.192;2023-08-24T00:40:57;11.70;;;6.80;;
75456;SDS011;64036;48.266;14.192;2023-08-24T00:43:25;7.90;;;6.40;;
75456;SDS011;64036;48.266;14.192;2023-08-24T00:45:53;8.50;;;6.10;;
75456;SDS011;64036;48.266;14.192;2023-08-24T00:48:21;9.50;;;7.00;;
75456;SDS011;64036;48.266;14.192;2023-08-24T00:50:55;9.90;;;7.10;;
75456;SDS011;64036;48.266;14.192;2023-08-24T00:53:23;9.50;;;6.60;;
75456;SDS011;64036;48.266;14.192;2023-08-24T00:55:50;9.00;;;6.40;;
75456;SDS011;64036;48.266;14.192;2023-08-24T00:58:16;8.30;;;6.10;;
75456;SDS011;64036;48.266;14.192;2023-08-24T01:00:43;8.40;;;6.80;;
75456;SDS011;64036;48.266;14.192;2023-08-24T01:03:09;8.50;;;6.20;;
75456;SDS011;64036;48.266;14.192;2023-08-24T01:05:34;7.80;;;5.40;;
75456;SDS011;64036;48.266;14.192;2023-08-24T01:08:00;11.30;;;6.50;;
75456;SDS011;64036;48.266;14.192;2023-08-24T01:10:34;10.20;;;6.50;;
75456;SDS011;64036;48.266;14.192;2023-08-24T01:13:08;8.40;;;6.10;;
75456;SDS011;64036;48.266;14.192;2023-08-24T01:15:48;7.00;;;5.70;;
75456;SDS011;64036;48.266;14.192;2023-08-24T01:18:39;7.30;;;5.70;;
75456;SDS011;64036;48.266;14.192;2023-08-24T01:21:08;9.80;;;6.40;;
75456;SDS011;64036;48.266;14.192;2023-08-24T01:23:55;7.10;;;5.90;;
75456;SDS011;64036;48.266;14.192;2023-08-24T01:26:30;7.30;;;6.00;;
75456;SDS011;64036;48.266;14.192;2023-08-24T01:28:56;6.40;;;5.40;;
75456;SDS011;64036;48.266;14.192;2023-08-24T01:31:22;9.10;;;5.90;;
75456;SDS011;64036;48.266;14.192;2023-08-24T01:33:47;8.60;;;5.80;;
75456;SDS011;64036;48.266;14.192;2023-08-24T01:36:14;7.60;;;5.50;;
75456;SDS011;64036;48.266;14.192;2023-08-24T01:38:42;8.30;;;5.80;;
75456;SDS011;64036;48.266;14.192;2023-08-24T01:43:53;6.90;;;5.60;;
75456;SDS011;64036;48.266;14.192;2023-08-24T01:46:21;6.90;;;5.20;;
75456;SDS011;64036;48.266;14.192;2023-08-24T01:48:48;7.30;;;5.40;;
75456;SDS011;64036;48.266;14.192;2023-08-24T01:51:15;6.50;;;4.80;;
75456;SDS011;64036;48.266;14.192;2023-08-24T01:53:41;6.50;;;5.40;;
75456;SDS011;64036;48.266;14.192;2023-08-24T01:56:10;9.60;;;5.20;;
75456;SDS011;64036;48.266;14.192;2023-08-24T01:58:40;7.60;;;5.20;;
75456;SDS011;64036;48.266;14.192;2023-08-24T02:01:10;8.20;;;5.40;;
75456;SDS011;64036;48.266;14.192;2023-08-24T02:03:36;9.40;;;4.70;;
75456;SDS011;64036;48.266;14.192;2023-08-24T02:06:04;8.40;;;6.00;;
75456;SDS011;64036;48.266;14.192;2023-08-24T02:08:32;8.60;;;6.20;;
75456;SDS011;64036;48.266;14.192;2023-08-24T02:10:58;10.10;;;6.20;;
75456;SDS011;64036;48.266;14.192;2023-08-24T02:13:24;10.90;;;5.60;;
75456;SDS011;64036;48.266;14.192;2023-08-24T02:15:50;9.50;;;6.30;;
75456;SDS011;64036;48.266;14.192;2023-08-24T02:18:16;8.90;;;5.60;;
75456;SDS011;64036;48.266;14.192;2023-08-24T02:20:41;8.70;;;6.60;;
75456;SDS011;64036;48.266;14.192;2023-08-24T02:23:07;8.20;;;5.40;;
75456;SDS011;64036;48.266;14.192;2023-08-24T02:25:33;7.60;;;5.40;;
75456;SDS011;64036;48.266;14.192;2023-08-24T02:27:59;10.10;;;6.50;;
75456;SDS011;64036;48.266;14.192;2023-08-24T02:30:24;10.50;;;7.00;;
75456;SDS011;64036;48.266;14.192;2023-08-24T02:32:51;10.20;;;8.10;;
75456;SDS011;64036;48.266;14.192;2023-08-24T02:35:17;10.70;;;8.00;;
75456;SDS011;64036;48.266;14.192;2023-08-24T02:37:43;9.40;;;7.40;;
75456;SDS011;64036;48.266;14.192;2023-08-24T02:40:09;11.50;;;7.00;;
75456;SDS011;64036;48.266;14.192;2023-08-24T02:42:35;8.60;;;7.00;;
75456;SDS011;64036;48.266;14.192;2023-08-24T02:45:01;9.30;;;8.00;;
75456;SDS011;64036;48.266;14.192;2023-08-24T02:47:27;9.00;;;7.80;;
75456;SDS011;64036;48.266;14.192;2023-08-24T02:49:53;9.90;;;7.50;;
75456;SDS011;64036;48.266;14.192;2023-08-24T02:52:18;9.80;;;7.50;;
75456;SDS011;64036;48.266;14.192;2023-08-24T02:54:44;10.40;;;7.80;;
75456;SDS011;64036;48.266;14.192;2023-08-24T02:57:10;9.80;;;7.40;;
75456;SDS011;64036;48.266;14.192;2023-08-24T02:59:35;11.10;;;8.40;;
75456;SDS011;64036;48.266;14.192;2023-08-24T03:02:01;9.20;;;7.10;;
75456;SDS011;64036;48.266;14.192;2023-08-24T03:04:27;8.80;;;7.50;;
75456;SDS011;64036;48.266;14.192;2023-08-24T03:06:53;8.60;;;7.40;;
75456;SDS011;64036;48.266;14.192;2023-08-24T03:09:19;10.60;;;7.90;;
75456;SDS011;64036;48.266;14.192;2023-08-24T03:11:44;8.90;;;7.50;;
75456;SDS011;64036;48.266;14.192;2023-08-24T03:14:10;8.30;;;6.60;;
75456;SDS011;64036;48.266;14.192;2023-08-24T03:16:37;8.00;;;7.10;;
75456;SDS011;64036;48.266;14.192;2023-08-24T03:19:06;9.60;;;7.60;;
75456;SDS011;64036;48.266;14.192;2023-08-24T03:21:32;10.00;;;8.20;;
75456;SDS011;64036;48.266;14.192;2023-08-24T03:23:58;9.80;;;7.70;;
75456;SDS011;64036;48.266;14.192;2023-08-24T03:26:23;10.00;;;8.30;;
75456;SDS011;64036;48.266;14.192;2023-08-24T03:28:49;9.60;;;8.20;;
75456;SDS011;64036;48.266;14.192;2023-08-24T03:31:16;11.80;;;8.60;;
75456;SDS011;64036;48.266;14.192;2023-08-24T03:33:41;12.30;;;7.40;;
75456;SDS011;64036;48.266;14.192;2023-08-24T03:36:07;11.60;;;8.50;;
75456;SDS011;64036;48.266;14.192;2023-08-24T03:38:33;11.00;;;8.30;;
75456;SDS011;64036;48.266;14.192;2023-08-24T03:41:02;11.70;;;7.70;;
75456;SDS011;64036;48.266;14.192;2023-08-24T03:43:32;10.00;;;7.80;;
75456;SDS011;64036;48.266;14.192;2023-08-24T03:46:00;9.40;;;7.50;;
75456;SDS011;64036;48.266;14.192;2023-08-24T03:48:26;9.00;;;7.70;;
75456;SDS011;64036;48.266;14.192;2023-08-24T03:50:56;10.20;;;7.90;;
75456;SDS011;64036;48.266;14.192;2023-08-24T03:53:23;12.20;;;7.70;;
75456;SDS011;64036;48.266;14.192;2023-08-24T03:55:50;9.60;;;7.50;;
75456;SDS011;64036;48.266;14.192;2023-08-24T03:58:16;8.50;;;7.10;;
75456;SDS011;64036;48.266;14.192;2023-08-24T04:00:43;11.20;;;7.70;;
75456;SDS011;64036;48.266;14.192;2023-08-24T04:03:09;10.70;;;7.90;;
75456;SDS011;64036;48.266;14.192;2023-08-24T04:05:35;10.70;;;7.80;;
75456;SDS011;64036;48.266;14.192;2023-08-24T04:08:01;9.30;;;7.10;;
75456;SDS011;64036;48.266;14.192;2023-08-24T04:10:28;11.20;;;7.40;;
75456;SDS011;64036;48.266;14.192;2023-08-24T04:12:54;9.10;;;6.80;;
75456;SDS011;64036;48.266;14.192;2023-08-24T04:15:20;10.70;;;7.30;;
75456;SDS011;64036;48.266;14.192;2023-08-24T04:17:46;9.20;;;7.50;;
75456;SDS011;64036;48.266;14.192;2023-08-24T04:20:12;8.80;;;6.90;;
75456;SDS011;64036;48.266;14.192;2023-08-24T04:22:38;8.70;;;6.60;;
75456;SDS011;64036;48.266;14.192;2023-08-24T04:25:03;8.20;;;6.00;;
75456;SDS011;64036;48.266;14.192;2023-08-24T04:27:31;7.90;;;6.10;;
75456;SDS011;64036;48.266;14.192;2023-08-24T04:29:58;8.30;;;6.50;;
75456;SDS011;64036;48.266;14.192;2023-08-24T04:32:24;7.90;;;5.90;;
75456;SDS011;64036;48.266;14.192;2023-08-24T04:34:50;7.60;;;6.50;;
75456;SDS011;64036;48.266;14.192;2023-08-24T04:37:15;7.30;;;5.60;;
75456;SDS011;64036;48.266;14.192;2023-08-24T04:39:41;9.90;;;5.70;;
75456;SDS011;64036;48.266;14.192;2023-08-24T04:42:07;8.70;;;6.80;;
75456;SDS011;64036;48.266;14.192;2023-08-24T04:44:33;9.50;;;6.60;;
75456;SDS011;64036;48.266;14.192;2023-08-24T04:46:59;7.20;;;6.00;;
75456;SDS011;64036;48.266;14.192;2023-08-24T04:49:24;8.40;;;6.70;;
75456;SDS011;64036;48.266;14.192;2023-08-24T04:51:50;9.60;;;6.30;;
75456;SDS011;64036;48.266;14.192;2023-08-24T04:54:15;7.10;;;6.10;;
75456;SDS011;64036;48.266;14.192;2023-08-24T04:56:41;9.80;;;6.10;;
75456;SDS011;64036;48.266;14.192;2023-08-24T04:59:07;9.30;;;6.30;;
75456;SDS011;64036;48.266;14.192;2023-08-24T05:01:34;8.00;;;6.30;;
75456;SDS011;64036;48.266;14.192;2023-08-24T05:04:00;8.00;;;6.20;;
75456;SDS011;64036;48.266;14.192;2023-08-24T05:06:26;8.40;;;6.00;;
75456;SDS011;64036;48.266;14.192;2023-08-24T05:08:52;11.80;;;6.40;;
75456;SDS011;64036;48.266;14.192;2023-08-24T05:11:19;9.20;;;5.90;;
75456;SDS011;64036;48.266;14.192;2023-08-24T05:13:47;8.90;;;5.30;;
75456;SDS011;64036;48.266;14.192;2023-08-24T05:16:13;8.20;;;5.30;;
75456;SDS011;64036;48.266;14.192;2023-08-24T05:18:39;9.10;;;5.30;;
75456;SDS011;64036;48.266;14.192;2023-08-24T05:21:05;9.80;;;5.30;;
75456;SDS011;64036;48.266;14.192;2023-08-24T05:23:32;6.60;;;5.40;;
75456;SDS011;64036;48.266;14.192;2023-08-24T05:25:59;9.40;;;5.40;;
75456;SDS011;64036;48.266;14.192;2023-08-24T05:28:30;6.70;;;5.10;;
75456;SDS011;64036;48.266;14.192;2023-08-24T05:30:57;9.40;;;5.40;;
75456;SDS011;64036;48.266;14.192;2023-08-24T05:33:24;7.80;;;4.90;;
75456;SDS011;64036;48.266;14.192;2023-08-24T05:35:51;6.50;;;4.70;;
75456;SDS011;64036;48.266;14.192;2023-08-24T05:38:17;7.00;;;4.70;;
75456;SDS011;64036;48.266;14.192;2023-08-24T05:40:46;6.80;;;5.10;;
75456;SDS011;64036;48.266;14.192;2023-08-24T05:43:13;6.20;;;4.50;;
75456;SDS011;64036;48.266;14.192;2023-08-24T05:45:38;7.60;;;4.00;;
75456;SDS011;64036;48.266;14.192;2023-08-24T05:48:06;6.30;;;4.00;;
75456;SDS011;64036;48.266;14.192;2023-08-24T05:50:32;5.40;;;3.80;;
75456;SDS011;64036;48.266;14.192;2023-08-24T05:52:58;5.40;;;3.70;;
75456;SDS011;64036;48.266;14.192;2023-08-24T05:55:24;5.80;;;3.80;;
75456;SDS011;64036;48.266;14.192;2023-08-24T05:57:49;7.50;;;4.10;;
75456;SDS011;64036;48.266;14.192;2023-08-24T06:00:15;7.50;;;3.90;;
75456;SDS011;64036;48.266;14.192;2023-08-24T06:02:42;4.80;;;3.40;;
75456;SDS011;64036;48.266;14.192;2023-08-24T06:05:08;6.00;;;3.80;;
75456;SDS011;64036;48.266;14.192;2023-08-24T06:07:35;7.10;;;3.60;;
75456;SDS011;64036;48.266;14.192;2023-08-24T06:10:01;6.10;;;3.40;;
75456;SDS011;64036;48.266;14.192;2023-08-24T06:12:27;6.00;;;3.80;;
75456;SDS011;64036;48.266;14.192;2023-08-24T06:14:52;7.10;;;3.80;;
75456;SDS011;64036;48.266;14.192;2023-08-24T06:17:18;8.30;;;3.90;;
75456;SDS011;64036;48.266;14.192;2023-08-24T06:19:44;6.00;;;3.70;;
75456;SDS011;64036;48.266;14.192;2023-08-24T06:22:09;6.60;;;3.40;;
75456;SDS011;64036;48.266;14.192;2023-08-24T06:24:35;5.00;;;3.30;;
75456;SDS011;64036;48.266;14.192;2023-08-24T06:27:01;7.10;;;3.50;;
75456;SDS011;64036;48.266;14.192;2023-08-24T06:29:28;9.10;;;3.80;;
75456;SDS011;64036;48.266;14.192;2023-08-24T06:31:54;6.80;;;3.60;;
75456;SDS011;64036;48.266;14.192;2023-08-24T06:34:21;6.90;;;3.90;;
75456;SDS011;64036;48.266;14.192;2023-08-24T06:36:47;6.30;;;3.70;;
75456;SDS011;64036;48.266;14.192;2023-08-24T06:39:15;8.30;;;4.10;;
75456;SDS011;64036;48.266;14.192;2023-08-24T06:41:41;8.70;;;3.80;;
75456;SDS011;64036;48.266;14.192;2023-08-24T06:44:07;8.00;;;3.90;;
75456;SDS011;64036;48.266;14.192;2023-08-24T06:46:32;6.50;;;4.00;;
75456;SDS011;64036;48.266;14.192;2023-08-24T06:48:58;10.70;;;4.50;;
75456;SDS011;64036;48.266;14.192;2023-08-24T06:51:25;8.70;;;4.50;;
75456;SDS011;64036;48.266;14.192;2023-08-24T06:53:51;8.30;;;4.60;;
75456;SDS011;64036;48.266;14.192;2023-08-24T06:56:17;8.60;;;5.20;;
75456;SDS011;64036;48.266;14.192;2023-08-24T06:58:44;8.70;;;4.70;;
75456;SDS011;64036;48.266;14.192;2023-08-24T07:01:10;12.10;;;5.80;;
75456;SDS011;64036;48.266;14.192;2023-08-24T07:03:37;10.00;;;4.60;;
75456;SDS011;64036;48.266;14.192;2023-08-24T07:06:05;10.00;;;5.20;;
75456;SDS011;64036;48.266;14.192;2023-08-24T07:08:33;9.50;;;4.80;;
75456;SDS011;64036;48.266;14.192;2023-08-24T07:11:00;9.80;;;4.50;;
75456;SDS011;64036;48.266;14.192;2023-08-24T07:13:27;11.70;;;5.20;;
75456;SDS011;64036;48.266;14.192;2023-08-24T07:15:53;11.30;;;4.70;;
75456;SDS011;64036;48.266;14.192;2023-08-24T07:18:20;8.70;;;4.60;;
75456;SDS011;64036;48.266;14.192;2023-08-24T07:20:46;11.40;;;4.90;;
75456;SDS011;64036;48.266;14.192;2023-08-24T07:23:11;9.30;;;4.30;;
75456;SDS011;64036;48.266;14.192;2023-08-24T07:25:37;11.10;;;4.70;;
75456;SDS011;64036;48.266;14.192;2023-08-24T07:28:03;10.90;;;4.30;;
75456;SDS011;64036;48.266;14.192;2023-08-24T07:30:31;11.20;;;4.90;;
75456;SDS011;64036;48.266;14.192;2023-08-24T07:32:57;6.70;;;4.00;;
75456;SDS011;64036;48.266;14.192;2023-08-24T07:35:23;6.90;;;3.70;;
75456;SDS011;64036;48.266;14.192;2023-08-24T07:37:52;8.90;;;4.40;;
75456;SDS011;64036;48.266;14.192;2023-08-24T07:40:18;6.30;;;3.60;;
75456;SDS011;64036;48.266;14.192;2023-08-24T07:42:49;8.80;;;3.70;;
75456;SDS011;64036;48.266;14.192;2023-08-24T07:45:18;6.50;;;3.40;;
75456;SDS011;64036;48.266;14.192;2023-08-24T07:47:44;4.80;;;3.00;;
75456;SDS011;64036;48.266;14.192;2023-08-24T07:50:11;8.50;;;4.20;;
75456;SDS011;64036;48.266;14.192;2023-08-24T07:52:38;7.80;;;4.10;;
75456;SDS011;64036;48.266;14.192;2023-08-24T07:55:05;7.60;;;4.00;;
75456;SDS011;64036;48.266;14.192;2023-08-24T07:57:36;7.10;;;3.90;;
75456;SDS011;64036;48.266;14.192;2023-08-24T08:00:03;9.80;;;4.40;;
75456;SDS011;64036;48.266;14.192;2023-08-24T08:02:29;7.40;;;4.40;;
75456;SDS011;64036;48.266;14.192;2023-08-24T08:04:58;5.90;;;4.30;;
75456;SDS011;64036;48.266;14.192;2023-08-24T08:07:27;6.90;;;4.90;;
75456;SDS011;64036;48.266;14.192;2023-08-24T08:09:53;7.40;;;3.90;;
75456;SDS011;64036;48.266;14.192;2023-08-24T08:12:19;7.10;;;4.40;;
75456;SDS011;64036;48.266;14.192;2023-08-24T08:14:45;7.90;;;4.70;;
75456;SDS011;64036;48.266;14.192;2023-08-24T08:17:11;6.90;;;4.70;;
75456;SDS011;64036;48.266;14.192;2023-08-24T08:19:36;6.30;;;4.50;;
75456;SDS011;64036;48.266;14.192;2023-08-24T08:22:04;5.90;;;4.30;;
75456;SDS011;64036;48.266;14.192;2023-08-24T08:24:30;7.40;;;4.90;;
75456;SDS011;64036;48.266;14.192;2023-08-24T08:26:55;8.00;;;5.20;;
75456;SDS011;64036;48.266;14.192;2023-08-24T08:29:21;8.20;;;4.80;;
75456;SDS011;64036;48.266;14.192;2023-08-24T08:31:47;6.70;;;4.80;;
75456;SDS011;64036;48.266;14.192;2023-08-24T08:34:13;8.50;;;5.30;;
75456;SDS011;64036;48.266;14.192;2023-08-24T08:36:39;5.60;;;4.00;;
75456;SDS011;64036;48.266;14.192;2023-08-24T08:39:04;5.50;;;4.40;;
75456;SDS011;64036;48.266;14.192;2023-08-24T08:41:38;6.60;;;4.70;;
75456;SDS011;64036;48.266;14.192;2023-08-24T08:44:10;9.00;;;5.80;;
75456;SDS011;64036;48.266;14.192;2023-08-24T08:46:40;8.00;;;4.70;;
75456;SDS011;64036;48.266;14.192;2023-08-24T08:49:07;7.60;;;4.50;;
75456;SDS011;64036;48.266;14.192;2023-08-24T08:51:38;7.50;;;4.40;;
75456;SDS011;64036;48.266;14.192;2023-08-24T08:54:04;7.30;;;4.80;;
75456;SDS011;64036;48.266;14.192;2023-08-24T08:56:31;8.20;;;4.90;;
75456;SDS011;64036;48.266;14.192;2023-08-24T08:58:59;5.90;;;4.30;;
75456;SDS011;64036;48.266;14.192;2023-08-24T09:01:28;6.00;;;4.40;;
75456;SDS011;64036;48.266;14.192;2023-08-24T09:03:54;6.30;;;3.50;;
75456;SDS011;64036;48.266;14.192;2023-08-24T09:06:22;10.00;;;4.50;;
75456;SDS011;64036;48.266;14.192;2023-08-24T09:08:49;6.10;;;4.50;;
75456;SDS011;64036;48.266;14.192;2023-08-24T09:11:16;5.60;;;4.50;;
75456;SDS011;64036;48.266;14.192;2023-08-24T09:13:44;7.20;;;4.20;;
75456;SDS011;64036;48.266;14.192;2023-08-24T09:16:10;6.40;;;4.80;;
75456;SDS011;64036;48.266;14.192;2023-08-24T09:18:46;5.90;;;4.20;;
75456;SDS011;64036;48.266;14.192;2023-08-24T09:21:14;7.50;;;3.80;;
75456;SDS011;64036;48.266;14.192;2023-08-24T09:23:59;5.70;;;3.30;;
75456;SDS011;64036;48.266;14.192;2023-08-24T09:26:28;7.40;;;4.20;;
75456;SDS011;64036;48.266;14.192;2023-08-24T09:28:56;7.40;;;4.10;;
75456;SDS011;64036;48.266;14.192;2023-08-24T09:31:23;8.30;;;4.30;;
75456;SDS011;64036;48.266;14.192;2023-08-24T09:33:49;5.90;;;3.90;;
75456;SDS011;64036;48.266;14.192;2023-08-24T09:36:15;6.20;;;4.50;;
75456;SDS011;64036;48.266;14.192;2023-08-24T09:38:47;7.20;;;3.90;;
75456;SDS011;64036;48.266;14.192;2023-08-24T09:41:14;5.90;;;4.00;;
75456;SDS011;64036;48.266;14.192;2023-08-24T09:43:40;5.20;;;4.00;;
75456;SDS011;64036;48.266;14.192;2023-08-24T09:46:05;9.80;;;4.00;;
75456;SDS011;64036;48.266;14.192;2023-08-24T09:48:33;7.30;;;4.00;;
75456;SDS011;64036;48.266;14.192;2023-08-24T09:51:03;5.80;;;3.60;;
75456;SDS011;64036;48.266;14.192;2023-08-24T09:53:33;5.20;;;3.00;;
75456;SDS011;64036;48.266;14.192;2023-08-24T09:56:04;7.00;;;3.80;;
75456;SDS011;64036;48.266;14.192;2023-08-24T09:58:32;6.10;;;3.70;;
75456;SDS011;64036;48.266;14.192;2023-08-24T10:01:00;4.90;;;3.10;;
75456;SDS011;64036;48.266;14.192;2023-08-24T10:03:27;6.30;;;3.80;;
75456;SDS011;64036;48.266;14.192;2023-08-24T10:05:55;5.70;;;4.00;;
75456;SDS011;64036;48.266;14.192;2023-08-24T10:08:43;4.50;;;3.20;;
75456;SDS011;64036;48.266;14.192;2023-08-24T10:11:23;8.40;;;4.30;;
75456;SDS011;64036;48.266;14.192;2023-08-24T10:13:53;5.10;;;3.30;;
75456;SDS011;64036;48.266;14.192;2023-08-24T10:16:23;7.20;;;3.90;;
75456;SDS011;64036;48.266;14.192;2023-08-24T10:18:49;6.90;;;4.10;;
75456;SDS011;64036;48.266;14.192;2023-08-24T10:21:17;5.60;;;3.30;;
75456;SDS011;64036;48.266;14.192;2023-08-24T10:23:45;6.20;;;3.60;;
75456;SDS011;64036;48.266;14.192;2023-08-24T10:26:12;5.70;;;3.90;;
75456;SDS011;64036;48.266;14.192;2023-08-24T10:28:39;5.60;;;3.30;;
75456;SDS011;64036;48.266;14.192;2023-08-24T10:31:05;6.40;;;3.40;;
75456;SDS011;64036;48.266;14.192;2023-08-24T10:33:32;6.70;;;3.60;;
75456;SDS011;64036;48.266;14.192;2023-08-24T10:35:59;5.30;;;3.50;;
75456;SDS011;64036;48.266;14.192;2023-08-24T10:38:34;6.70;;;4.00;;
75456;SDS011;64036;48.266;14.192;2023-08-24T10:41:02;6.00;;;3.80;;
75456;SDS011;64036;48.266;14.192;2023-08-24T10:43:37;5.30;;;3.40;;
75456;SDS011;64036;48.266;14.192;2023-08-24T10:46:04;5.40;;;3.40;;
75456;SDS011;64036;48.266;14.192;2023-08-24T10:53:51;7.90;;;3.60;;
75456;SDS011;64036;48.266;14.192;2023-08-24T10:56:30;5.00;;;3.40;;
75456;SDS011;64036;48.266;14.192;2023-08-24T11:02:01;7.50;;;3.40;;
75456;SDS011;64036;48.266;14.192;2023-08-24T11:04:26;6.20;;;3.10;;
75456;SDS011;64036;48.266;14.192;2023-08-24T11:06:59;4.90;;;3.20;;
75456;SDS011;64036;48.266;14.192;2023-08-24T11:09:45;5.40;;;3.20;;
75456;SDS011;64036;48.266;14.192;2023-08-24T11:12:12;5.90;;;3.40;;
75456;SDS011;64036;48.266;14.192;2023-08-24T11:14:52;6.00;;;3.70;;
75456;SDS011;64036;48.266;14.192;2023-08-24T11:17:24;4.80;;;2.90;;
75456;SDS011;64036;48.266;14.192;2023-08-24T11:19:52;4.30;;;2.90;;
75456;SDS011;64036;48.266;14.192;2023-08-24T11:22:20;4.40;;;2.90;;
75456;SDS011;64036;48.266;14.192;2023-08-24T11:24:46;6.30;;;3.20;;
75456;SDS011;64036;48.266;14.192;2023-08-24T11:27:12;6.50;;;3.60;;
75456;SDS011;64036;48.266;14.192;2023-08-24T11:29:38;4.60;;;3.10;;
75456;SDS011;64036;48.266;14.192;2023-08-24T11:32:04;6.80;;;3.60;;
75456;SDS011;64036;48.266;14.192;2023-08-24T11:34:30;7.30;;;3.10;;
75456;SDS011;64036;48.266;14.192;2023-08-24T11:36:57;5.10;;;3.10;;
75456;SDS011;64036;48.266;14.192;2023-08-24T11:39:23;8.90;;;3.50;;
75456;SDS011;64036;48.266;14.192;2023-08-24T11:41:57;5.40;;;3.10;;
75456;SDS011;64036;48.266;14.192;2023-08-24T11:44:27;7.50;;;3.50;;
75456;SDS011;64036;48.266;14.192;2023-08-24T11:46:56;5.00;;;3.20;;
75456;SDS011;64036;48.266;14.192;2023-08-24T11:49:23;6.50;;;3.40;;
75456;SDS011;64036;48.266;14.192;2023-08-24T11:51:50;9.80;;;3.50;;
75456;SDS011;64036;48.266;14.192;2023-08-24T11:54:18;6.90;;;3.90;;
75456;SDS011;64036;48.266;14.192;2023-08-24T11:56:44;5.80;;;3.60;;
75456;SDS011;64036;48.266;14.192;2023-08-24T11:59:12;5.50;;;3.10;;
75456;SDS011;64036;48.266;14.192;2023-08-24T12:01:40;6.10;;;3.50;;
75456;SDS011;64036;48.266;14.192;2023-08-24T12:04:06;5.80;;;3.40;;
75456;SDS011;64036;48.266;14.192;2023-08-24T12:06:32;6.40;;;3.40;;
75456;SDS011;64036;48.266;14.192;2023-08-24T12:08:58;6.20;;;3.60;;
75456;SDS011;64036;48.266;14.192;2023-08-24T12:11:24;5.90;;;3.30;;
75456;SDS011;64036;48.266;14.192;2023-08-24T12:13:53;5.50;;;3.50;;
75456;SDS011;64036;48.266;14.192;2023-08-24T12:16:20;5.50;;;3.30;;
75456;SDS011;64036;48.266;14.192;2023-08-24T12:18:57;6.20;;;3.30;;
75456;SDS011;64036;48.266;14.192;2023-08-24T12:21:31;5.90;;;3.50;;
75456;SDS011;64036;48.266;14.192;2023-08-24T12:24:02;5.30;;;3.30;;
75456;SDS011;64036;48.266;14.192;2023-08-24T12:26:32;6.70;;;3.60;;
75456;SDS011;64036;48.266;14.192;2023-08-24T12:29:01;5.60;;;3.50;;
75456;SDS011;64036;48.266;14.192;2023-08-24T12:31:29;6.60;;;3.80;;
75456;SDS011;64036;48.266;14.192;2023-08-24T12:34:15;7.00;;;3.50;;
75456;SDS011;64036;48.266;14.192;2023-08-24T12:36:42;7.00;;;3.80;;
75456;SDS011;64036;48.266;14.192;2023-08-24T12:39:11;5.80;;;3.60;;
75456;SDS011;64036;48.266;14.192;2023-08-24T12:41:40;6.60;;;3.60;;
75456;SDS011;64036;48.266;14.192;2023-08-24T12:44:09;7.40;;;3.70;;
75456;SDS011;64036;48.266;14.192;2023-08-24T12:46:35;5.20;;;3.50;;
75456;SDS011;64036;48.266;14.192;2023-08-24T12:49:01;9.00;;;3.90;;
75456;SDS011;64036;48.266;14.192;2023-08-24T12:51:27;5.80;;;3.40;;
75456;SDS011;64036;48.266;14.192;2023-08-24T12:53:53;5.90;;;3.90;;
75456;SDS011;64036;48.266;14.192;2023-08-24T12:56:19;6.50;;;3.40;;
75456;SDS011;64036;48.266;14.192;2023-08-24T12:58:44;6.80;;;3.40;;
75456;SDS011;64036;48.266;14.192;2023-08-24T13:01:11;7.30;;;3.20;;
75456;SDS011;64036;48.266;14.192;2023-08-24T13:03:37;7.20;;;3.60;;
75456;SDS011;64036;48.266;14.192;2023-08-24T13:06:05;6.80;;;3.40;;
75456;SDS011;64036;48.266;14.192;2023-08-24T13:08:31;5.60;;;3.50;;
75456;SDS011;64036;48.266;14.192;2023-08-24T13:10:57;4.50;;;2.90;;
75456;SDS011;64036;48.266;14.192;2023-08-24T13:13:23;5.90;;;3.30;;
75456;SDS011;64036;48.266;14.192;2023-08-24T13:15:51;7.10;;;3.30;;
75456;SDS011;64036;48.266;14.192;2023-08-24T13:18:17;5.60;;;3.50;;
75456;SDS011;64036;48.266;14.192;2023-08-24T13:20:43;5.40;;;3.70;;
75456;SDS011;64036;48.266;14.192;2023-08-24T13:23:09;7.70;;;4.00;;
75456;SDS011;64036;48.266;14.192;2023-08-24T13:25:35;5.80;;;3.20;;
75456;SDS011;64036;48.266;14.192;2023-08-24T13:28:00;4.80;;;3.60;;
75456;SDS011;64036;48.266;14.192;2023-08-24T13:30:26;8.10;;;3.50;;
75456;SDS011;64036;48.266;14.192;2023-08-24T13:32:52;5.70;;;3.40;;
75456;SDS011;64036;48.266;14.192;2023-08-24T13:35:19;5.50;;;3.10;;
75456;SDS011;64036;48.266;14.192;2023-08-24T13:37:45;6.80;;;3.40;;
75456;SDS011;64036;48.266;14.192;2023-08-24T13:40:10;5.30;;;3.00;;
75456;SDS011;64036;48.266;14.192;2023-08-24T13:42:37;5.30;;;3.60;;
75456;SDS011;64036;48.266;14.192;2023-08-24T13:45:03;6.50;;;3.40;;
75456;SDS011;64036;48.266;14.192;2023-08-24T13:47:29;6.00;;;3.40;;
75456;SDS011;64036;48.266;14.192;2023-08-24T13:49:55;6.30;;;3.50;;
75456;SDS011;64036;48.266;14.192;2023-08-24T13:52:20;8.20;;;3.30;;
75456;SDS011;64036;48.266;14.192;2023-08-24T13:54:46;6.60;;;3.70;;
75456;SDS011;64036;48.266;14.192;2023-08-24T13:57:12;5.80;;;3.20;;
75456;SDS011;64036;48.266;14.192;2023-08-24T13:59:38;5.10;;;3.00;;
75456;SDS011;64036;48.266;14.192;2023-08-24T14:02:05;4.60;;;3.20;;
75456;SDS011;64036;48.266;14.192;2023-08-24T14:04:32;6.30;;;3.20;;
75456;SDS011;64036;48.266;14.192;2023-08-24T14:06:58;6.80;;;3.00;;
75456;SDS011;64036;48.266;14.192;2023-08-24T14:09:23;10.20;;;3.50;;
75456;SDS011;64036;48.266;14.192;2023-08-24T14:11:49;6.20;;;3.30;;
75456;SDS011;64036;48.266;14.192;2023-08-24T14:14:15;6.00;;;3.20;;
75456;SDS011;64036;48.266;14.192;2023-08-24T14:16:40;5.60;;;3.00;;
75456;SDS011;64036;48.266;14.192;2023-08-24T14:19:06;5.40;;;2.60;;
75456;SDS011;64036;48.266;14.192;2023-08-24T14:25:14;6.50;;;3.30;;
75456;SDS011;64036;48.266;14.192;2023-08-24T14:27:40;5.70;;;3.30;;
75456;SDS011;64036;48.266;14.192;2023-08-24T14:33:48;6.90;;;2.90;;
75456;SDS011;64036;48.266;14.192;2023-08-24T14:36:15;5.90;;;3.00;;
75456;SDS011;64036;48.266;14.192;2023-08-24T14:42:32;6.10;;;2.70;;
75456;SDS011;64036;48.266;14.192;2023-08-24T14:44:58;6.60;;;2.80;;
75456;SDS011;64036;48.266;14.192;2023-08-24T14:51:30;6.10;;;2.80;;
75456;SDS011;64036;48.266;14.192;2023-08-24T14:56:21;5.40;;;2.60;;
75456;SDS011;64036;48.266;14.192;2023-08-24T14:58:47;9.00;;;3.30;;
75456;SDS011;64036;48.266;14.192;2023-08-24T15:04:54;7.60;;;3.00;;
75456;SDS011;64036;48.266;14.192;2023-08-24T15:07:20;7.30;;;3.00;;